Time;durP1;ratioP1;P1;durP2;ratioP2;P2;SDS_P1;SDS_P2;PMS_P1;PMS_P2;Temp;Humidity;BMP_temperature;BMP_pressure;BME280_temperature;BME280_humidity;BME280_pressure;Samples;Min_cycle;Max_cycle;Signal;HPM_P1;HPM_P2
2023/01/11 00:02:33;;;;;;;0.10;0.10;;;;;;;3.00;100.00;96223.44;5052064;28;20044;-74
2023/01/11 00:05:19;;;;;;;0.20;0.20;;;;;;;3.03;100.00;96207.16;5055137;28;20583;-76
2023/01/11 00:08:05;;;;;;;0.20;0.20;;;;;;;3.00;100.00;96203.09;5026744;28;20040;-76
2023/01/11 00:10:52;;;;;;;0.20;0.20;;;;;;;2.93;100.00;96212.88;5066005;28;20064;-74
2023/01/11 00:13:38;;;;;;;0.20;0.20;;;;;;;2.99;100.00;96209.41;5055008;28;20448;-75
2023/01/11 00:16:23;;;;;;;0.20;0.20;;;;;;;3.05;100.00;96216.53;5054056;28;20384;-76
2023/01/11 00:19:09;;;;;;;0.22;0.22;;;;;;;3.13;100.00;96222.59;5056908;28;20349;-76
2023/01/11 00:21:55;;;;;;;0.20;0.20;;;;;;;3.11;100.00;96219.34;5051173;28;20340;-76
2023/01/11 00:24:41;;;;;;;0.10;0.10;;;;;;;3.07;100.00;96219.75;5045287;28;20276;-76
2023/01/11 00:27:27;;;;;;;0.20;0.20;;;;;;;3.06;100.00;96212.03;5054981;28;20052;-76
2023/01/11 00:30:13;;;;;;;0.30;0.30;;;;;;;3.08;100.00;96210.81;5053689;28;20081;-74
2023/01/11 00:32:59;;;;;;;0.20;0.20;;;;;;;3.12;100.00;96223.63;5054681;28;20075;-74
2023/01/11 00:35:45;;;;;;;0.20;0.20;;;;;;;3.10;100.00;96217.72;5052774;28;20479;-74
2023/01/11 00:38:43;;;;;;;0.20;0.20;;;;;;;3.12;100.00;96221.78;5056018;28;20096;-76
2023/01/11 00:47:56;;;;;;;0.20;0.20;;;;;;;3.14;100.00;96211.00;5046111;28;20047;-77
2023/01/11 00:50:42;;;;;;;0.20;0.20;;;;;;;3.13;100.00;96201.44;5053223;28;20569;-75
2023/01/11 00:53:27;;;;;;;0.20;0.20;;;;;;;3.14;100.00;96203.06;5055032;28;20052;-76
2023/01/11 00:56:13;;;;;;;0.10;0.10;;;;;;;3.08;100.00;96208.16;5041698;28;20097;-76
2023/01/11 00:58:59;;;;;;;0.20;0.20;;;;;;;3.14;100.00;96208.34;5054081;28;20552;-75
2023/01/11 01:01:45;;;;;;;0.20;0.20;;;;;;;3.14;100.00;96203.88;5052870;28;20043;-76
2023/01/11 01:04:31;;;;;;;0.25;0.25;;;;;;;3.11;100.00;96199.00;5055456;28;20047;-75
2023/01/11 01:07:17;;;;;;;0.20;0.20;;;;;;;3.20;100.00;96191.66;5037292;28;20554;-75
2023/01/11 01:10:03;;;;;;;0.20;0.20;;;;;;;3.17;100.00;96189.41;5044142;28;20430;-75
2023/01/11 01:15:57;;;;;;;0.20;0.20;;;;;;;3.22;100.00;96190.44;5054299;28;20040;-74
2023/01/11 01:18:43;;;;;;;0.20;0.20;;;;;;;3.28;100.00;96183.50;5055002;28;20080;-74
2023/01/11 01:21:29;;;;;;;0.10;0.10;;;;;;;3.24;100.00;96183.09;5052048;28;20048;-76
2023/01/11 01:24:15;;;;;;;0.20;0.20;;;;;;;3.26;100.00;96186.34;5053680;28;20056;-74
2023/01/11 01:27:01;;;;;;;0.20;0.20;;;;;;;3.24;100.00;96196.31;5054041;28;20224;-76
2023/01/11 01:29:47;;;;;;;0.10;0.10;;;;;;;3.27;100.00;96195.91;5056387;28;20113;-76
2023/01/11 01:32:32;;;;;;;0.20;0.20;;;;;;;3.33;100.00;96186.31;5038847;28;20045;-76
2023/01/11 01:35:18;;;;;;;0.20;0.20;;;;;;;3.37;100.00;96195.47;5055430;28;20452;-75
2023/01/11 01:38:04;;;;;;;0.20;0.20;;;;;;;3.33;100.00;96195.06;5053133;28;20053;-75
2023/01/11 01:40:51;;;;;;;0.20;0.20;;;;;;;3.40;100.00;96196.88;5051178;28;20040;-76
2023/01/11 01:43:44;;;;;;;0.10;0.10;;;;;;;3.36;100.00;96191.19;5045331;28;20028;-76
2023/01/11 01:46:32;;;;;;;0.20;0.20;;;;;;;3.37;100.00;96186.72;5054970;28;20457;-77
2023/01/11 01:49:18;;;;;;;0.20;0.20;;;;;;;3.34;100.00;96172.06;5052498;28;20113;-74
2023/01/11 01:52:04;;;;;;;0.20;0.20;;;;;;;3.40;100.00;96187.09;5052768;28;20047;-75
2023/01/11 01:54:50;;;;;;;0.20;0.20;;;;;;;3.38;100.00;96189.16;5047982;28;20323;-75
2023/01/11 01:57:40;;;;;;;0.10;0.10;;;;;;;3.39;100.00;96182.03;5052842;28;20186;-75
2023/01/11 02:00:29;;;;;;;0.30;0.20;;;;;;;3.41;100.00;96178.13;5052529;28;20594;-76
2023/01/11 02:03:19;;;;;;;0.20;0.20;;;;;;;3.41;100.00;96174.69;5053323;28;20427;-75
2023/01/11 02:06:05;;;;;;;0.22;0.22;;;;;;;3.45;100.00;96165.31;5048842;28;20051;-75
2023/01/11 02:09:00;;;;;;;0.20;0.20;;;;;;;3.40;100.00;96163.28;5053288;28;20062;-74
2023/01/11 02:11:46;;;;;;;0.30;0.20;;;;;;;3.37;100.00;96161.09;5054289;28;20220;-75
2023/01/11 02:14:34;;;;;;;0.52;0.40;;;;;;;3.38;100.00;96148.66;5054415;28;20484;-74
2023/01/11 02:17:20;;;;;;;1.42;0.77;;;;;;;3.39;100.00;96143.16;5050924;28;20043;-76
2023/01/11 02:20:34;;;;;;;1.20;0.70;;;;;;;3.38;100.00;96148.66;5052028;28;20047;-74
2023/01/11 02:23:49;;;;;;;0.60;0.38;;;;;;;3.36;100.00;96154.19;5053160;28;20082;-76
2023/01/11 02:27:00;;;;;;;0.55;0.35;;;;;;;3.34;100.00;96119.97;5052895;28;20513;-77
2023/01/11 02:29:57;;;;;;;0.32;0.25;;;;;;;3.42;100.00;96126.03;5064728;28;20040;-77
2023/01/11 02:32:55;;;;;;;0.20;0.20;;;;;;;3.39;100.00;96122.00;5053812;28;20078;-75
2023/01/11 02:35:46;;;;;;;0.20;0.20;;;;;;;3.34;100.00;96108.59;5054614;28;20387;-75
2023/01/11 02:38:44;;;;;;;0.20;0.20;;;;;;;3.42;100.00;96116.28;5065503;28;20067;-74
2023/01/11 02:45:03;;;;;;;0.20;0.20;;;;;;;3.43;100.00;96101.25;5053958;28;20470;-75
2023/01/11 02:48:01;;;;;;;0.20;0.20;;;;;;;3.50;100.00;96088.75;5054102;28;20032;-76
2023/01/11 02:50:53;;;;;;;0.20;0.20;;;;;;;3.51;100.00;96088.56;5052204;28;20032;-75
2023/01/11 02:53:49;;;;;;;0.17;0.17;;;;;;;3.51;100.00;96075.34;5052327;28;20040;-76
2023/01/11 02:56:39;;;;;;;0.20;0.20;;;;;;;3.60;100.00;96063.47;5052663;28;20294;-75
2023/01/11 02:59:31;;;;;;;0.40;0.30;;;;;;;3.65;100.00;96073.41;5051230;28;20037;-76
2023/01/11 03:02:17;;;;;;;0.17;0.17;;;;;;;3.71;100.00;96077.84;5048758;28;20055;-74
2023/01/11 03:05:11;;;;;;;0.20;0.20;;;;;;;3.71;100.00;96069.91;5051919;28;21627;-74
2023/01/11 03:08:06;;;;;;;0.20;0.20;;;;;;;3.74;100.00;96074.78;5051584;28;20324;-76
2023/01/11 03:11:00;;;;;;;0.20;0.20;;;;;;;3.76;100.00;96072.72;5034134;28;20675;-76
2023/01/11 03:13:58;;;;;;;0.20;0.20;;;;;;;3.83;100.00;96070.03;5049189;28;20523;-74
2023/01/11 03:17:09;;;;;;;0.10;0.10;;;;;;;3.89;100.00;96061.22;5039120;28;20047;-74
2023/01/11 03:20:05;;;;;;;0.10;0.10;;;;;;;3.92;100.00;96074.03;5050479;28;20209;-76
2023/01/11 03:22:58;;;;;;;0.20;0.20;;;;;;;3.93;100.00;96049.19;5037020;28;20044;-76
2023/01/11 03:25:53;;;;;;;0.20;0.20;;;;;;;3.96;100.00;96055.88;5050781;28;20054;-76
2023/01/11 03:29:02;;;;;;;0.28;0.20;;;;;;;4.04;100.00;96045.81;5062697;28;20041;-74
2023/01/11 03:32:00;;;;;;;0.13;0.13;;;;;;;4.08;100.00;96043.56;5049832;28;20032;-74
2023/01/11 03:35:06;;;;;;;0.22;0.22;;;;;;;4.01;100.00;96040.97;5052173;28;20047;-74
2023/01/11 03:38:13;;;;;;;0.30;0.20;;;;;;;4.08;100.00;96040.91;5051055;28;20048;-75
2023/01/11 03:41:06;;;;;;;0.30;0.20;;;;;;;4.16;100.00;96027.38;5041243;28;20542;-73
2023/01/11 03:43:55;;;;;;;0.15;0.15;;;;;;;4.12;100.00;96031.47;5052593;28;20106;-75
2023/01/11 03:46:53;;;;;;;0.20;0.20;;;;;;;4.12;100.00;96018.25;5052019;28;20111;-76
2023/01/11 03:49:51;;;;;;;0.30;0.30;;;;;;;4.14;100.00;96024.97;5051867;28;20350;-76
2023/01/11 03:52:41;;;;;;;0.38;0.30;;;;;;;4.17;100.00;96031.66;5049188;28;20063;-75
2023/01/11 03:55:32;;;;;;;0.20;0.20;;;;;;;4.19;100.00;96033.03;5049946;28;20047;-76
2023/01/11 03:58:18;;;;;;;;;;;;;;;4.25;100.00;96041.16;5037650;28;20049;-76
2023/01/11 04:01:04;;;;;;;0.20;0.20;;;;;;;4.22;100.00;96034.47;5050054;28;20003;-75
2023/01/11 04:03:50;;;;;;;0.20;0.20;;;;;;;4.31;100.00;96042.94;5036598;28;20064;-76
2023/01/11 04:06:37;;;;;;;0.20;0.20;;;;;;;4.37;100.00;96044.72;5062296;28;20562;-75
2023/01/11 04:09:23;;;;;;;0.20;0.20;;;;;;;4.37;100.00;96036.75;5052063;28;20524;-76
2023/01/11 04:12:09;;;;;;;0.13;0.13;;;;;;;4.45;100.00;96052.38;5050555;28;20139;-75
2023/01/11 04:14:55;;;;;;;0.20;0.20;;;;;;;4.46;100.00;96027.50;5052423;28;20044;-76
2023/01/11 04:17:41;;;;;;;0.20;0.20;;;;;;;4.51;100.00;96032.13;5043021;28;20238;-76
2023/01/11 04:20:27;;;;;;;0.20;0.20;;;;;;;4.54;100.00;96019.25;5049705;28;20090;-76
2023/01/11 04:23:14;;;;;;;0.20;0.20;;;;;;;4.66;100.00;96020.13;5048075;28;20037;-74
2023/01/11 04:25:59;;;;;;;0.20;0.20;;;;;;;4.61;100.00;96030.59;5053065;28;20047;-75
2023/01/11 04:28:45;;;;;;;0.13;0.13;;;;;;;4.64;100.00;96016.88;5052187;28;20238;-76
2023/01/11 04:31:31;;;;;;;0.20;0.20;;;;;;;4.66;100.00;96004.22;5040571;28;20403;-74
2023/01/11 04:34:17;;;;;;;0.20;0.20;;;;;;;4.73;100.00;96007.59;5054942;28;20105;-75
2023/01/11 04:37:03;;;;;;;0.20;0.20;;;;;;;4.68;100.00;96004.03;5054821;28;20059;-76
2023/01/11 04:39:49;;;;;;;0.17;0.17;;;;;;;4.71;100.00;96014.97;5053784;28;20033;-75
2023/01/11 04:42:34;;;;;;;0.10;0.10;;;;;;;4.72;100.00;96005.19;5054054;28;20489;-75
2023/01/11 04:45:22;;;;;;;0.10;0.10;;;;;;;4.72;100.00;95999.88;5067743;28;20052;-76
2023/01/11 04:48:07;;;;;;;0.20;0.20;;;;;;;4.73;100.00;96001.50;5055339;28;20608;-75
2023/01/11 04:50:53;;;;;;;0.20;0.20;;;;;;;4.78;100.00;95992.88;5036877;28;20404;-76
2023/01/11 04:53:39;;;;;;;0.20;0.20;;;;;;;4.83;100.00;96000.97;5040021;28;20111;-76
2023/01/11 04:56:25;;;;;;;0.10;0.10;;;;;;;4.82;100.00;95983.44;5053074;28;20427;-77
2023/01/11 04:59:11;;;;;;;0.20;0.20;;;;;;;4.96;100.00;95990.19;5055836;28;20044;-75
2023/01/11 05:01:57;;;;;;;0.20;0.20;;;;;;;4.95;100.00;95996.53;5053047;28;20181;-77
2023/01/11 05:04:43;;;;;;;0.20;0.20;;;;;;;4.97;100.00;95989.16;5053691;28;20052;-76
2023/01/11 05:07:29;;;;;;;0.20;0.20;;;;;;;4.97;100.00;95997.09;5053517;28;20036;-77
2023/01/11 05:10:15;;;;;;;0.20;0.20;;;;;;;4.97;100.00;95997.91;5042160;28;20665;-77
2023/01/11 05:13:01;;;;;;;0.20;0.20;;;;;;;5.01;100.00;95990.34;5066865;28;20051;-75
2023/01/11 05:15:47;;;;;;;0.15;0.15;;;;;;;5.06;100.00;95994.94;5055438;28;20245;-77
2023/01/11 05:18:33;;;;;;;0.10;0.10;;;;;;;5.06;100.00;95989.66;5039705;28;20066;-76
2023/01/11 05:21:21;;;;;;;0.20;0.20;;;;;;;5.06;100.00;95987.00;5051717;28;20037;-75
2023/01/11 05:24:10;;;;;;;0.20;0.20;;;;;;;5.04;100.00;95984.56;5040010;28;20039;-77
2023/01/11 05:26:56;;;;;;;0.20;0.20;;;;;;;5.06;100.00;95985.19;5054833;28;20331;-78
2023/01/11 05:29:43;;;;;;;0.17;0.17;;;;;;;5.01;100.00;95988.50;5055835;28;20044;-76
2023/01/11 05:32:29;;;;;;;0.10;0.10;;;;;;;5.07;100.00;95976.19;5051811;28;20498;-78
2023/01/11 05:35:14;;;;;;;0.20;0.20;;;;;;;5.09;100.00;95975.94;5054149;28;20028;-76
2023/01/11 05:38:00;;;;;;;0.10;0.10;;;;;;;5.17;100.00;95984.41;5053384;28;20040;-78
2023/01/11 05:40:53;;;;;;;0.10;0.10;;;;;;;5.23;100.00;95975.53;5054391;28;20048;-76
2023/01/11 05:46:43;;;;;;;0.20;0.20;;;;;;;5.24;100.00;95971.03;5055302;28;20360;-76
2023/01/11 05:49:29;;;;;;;0.20;0.20;;;;;;;5.27;100.00;95984.66;5052864;28;20894;-77
2023/01/11 05:52:16;;;;;;;0.20;0.20;;;;;;;5.26;100.00;95967.13;5052516;28;20795;-77
2023/01/11 05:55:02;;;;;;;0.20;0.20;;;;;;;5.26;100.00;95976.94;5054153;28;20134;-78
2023/01/11 05:57:49;;;;;;;0.20;0.20;;;;;;;5.29;100.00;95976.47;5056495;28;20105;-75
2023/01/11 06:00:35;;;;;;;0.20;0.20;;;;;;;5.26;100.00;95972.44;5052240;28;20055;-77
2023/01/11 06:03:22;;;;;;;0.10;0.10;;;;;;;5.36;100.00;95979.03;5054417;28;20075;-77
2023/01/11 06:06:08;;;;;;;0.20;0.20;;;;;;;5.37;100.00;95967.38;5025408;28;20456;-76
2023/01/11 06:08:54;;;;;;;0.20;0.20;;;;;;;5.41;100.00;95963.25;5052521;28;20400;-77
2023/01/11 06:11:40;;;;;;;0.10;0.10;;;;;;;5.43;100.00;95963.81;5037551;28;20071;-78
2023/01/11 06:14:27;;;;;;;0.20;0.20;;;;;;;5.45;100.00;95956.44;5053739;28;20071;-78
2023/01/11 06:17:13;;;;;;;0.20;0.20;;;;;;;5.46;100.00;95952.75;5053572;28;20040;-76
2023/01/11 06:19:59;;;;;;;0.20;0.20;;;;;;;5.44;100.00;95946.84;5052567;28;20594;-77
2023/01/11 06:22:45;;;;;;;0.10;0.10;;;;;;;5.41;100.00;95953.44;5039076;28;20424;-76
2023/01/11 06:25:31;;;;;;;0.20;0.20;;;;;;;5.45;100.00;95945.84;5052035;28;20044;-77
2023/01/11 06:28:17;;;;;;;0.20;0.20;;;;;;;5.41;100.00;95937.50;5065162;28;20098;-75
2023/01/11 06:31:06;;;;;;;0.15;0.15;;;;;;;5.49;100.00;95939.81;5052242;28;20476;-75
2023/01/11 06:33:52;;;;;;;0.20;0.20;;;;;;;5.53;100.00;95926.94;5046813;28;20036;-75
2023/01/11 06:36:38;;;;;;;0.20;0.20;;;;;;;5.53;100.00;95932.22;5054310;28;20318;-77
2023/01/11 06:39:23;;;;;;;0.20;0.20;;;;;;;5.59;100.00;95923.31;5054925;28;20032;-77
2023/01/11 06:42:09;;;;;;;0.20;0.20;;;;;;;5.58;100.00;95922.53;5042066;28;20060;-77
2023/01/11 06:44:55;;;;;;;0.20;0.20;;;;;;;5.66;100.00;95933.84;5054448;28;20047;-77
2023/01/11 06:47:41;;;;;;;0.20;0.20;;;;;;;5.71;100.00;95924.16;5052172;28;20356;-75
2023/01/11 06:50:27;;;;;;;0.20;0.20;;;;;;;5.74;100.00;95928.19;5062488;28;20268;-77
2023/01/11 06:53:12;;;;;;;0.20;0.20;;;;;;;5.74;100.00;95920.22;5038976;28;20028;-75
2023/01/11 06:55:58;;;;;;;0.20;0.20;;;;;;;5.78;100.00;95926.69;5051843;28;20283;-77
2023/01/11 06:58:45;;;;;;;0.20;0.20;;;;;;;5.83;100.00;95927.59;5051318;28;20296;-76
2023/01/11 07:01:31;;;;;;;0.20;0.20;;;;;;;5.88;100.00;95913.66;5032492;28;20044;-76
2023/01/11 07:04:18;;;;;;;0.20;0.20;;;;;;;5.87;100.00;95936.75;5051324;28;20775;-76
2023/01/11 07:07:04;;;;;;;0.20;0.20;;;;;;;5.87;100.00;95920.81;5051151;28;20048;-76
2023/01/11 07:09:52;;;;;;;0.20;0.20;;;;;;;5.90;100.00;95932.00;5053737;28;20166;-77
2023/01/11 07:12:38;;;;;;;0.30;0.30;;;;;;;5.95;100.00;95919.69;5051789;28;20417;-78
2023/01/11 07:15:23;;;;;;;0.20;0.20;;;;;;;6.01;100.00;95923.25;5051947;28;20071;-77
2023/01/11 07:18:10;;;;;;;0.20;0.20;;;;;;;6.05;100.00;95935.03;5052759;28;20623;-77
2023/01/11 07:20:56;;;;;;;0.20;0.20;;;;;;;6.08;100.00;95945.19;5052296;28;20070;-78
2023/01/11 07:23:41;;;;;;;0.20;0.20;;;;;;;6.08;100.00;95939.88;5039644;28;20520;-75
2023/01/11 07:26:28;;;;;;;0.20;0.20;;;;;;;6.19;100.00;95938.25;5054005;28;20801;-77
2023/01/11 07:29:14;;;;;;;0.20;0.20;;;;;;;6.25;100.00;95938.13;5052047;28;20626;-75
2023/01/11 07:32:00;;;;;;;0.10;0.10;;;;;;;6.28;100.00;95945.63;5051984;28;20131;-75
2023/01/11 07:34:46;;;;;;;0.20;0.20;;;;;;;6.32;100.00;95933.50;5054871;28;20634;-76
2023/01/11 07:37:33;;;;;;;0.20;0.20;;;;;;;6.40;100.00;95948.28;5051807;28;20039;-76
2023/01/11 07:40:19;;;;;;;0.20;0.20;;;;;;;6.39;100.00;95950.13;5038708;28;20044;-78
2023/01/11 07:43:13;;;;;;;0.10;0.10;;;;;;;6.53;100.00;95945.34;5032763;28;20044;-77
2023/01/11 07:45:59;;;;;;;0.13;0.13;;;;;;;6.53;100.00;95945.34;5052209;28;20044;-78
2023/01/11 07:48:44;;;;;;;0.20;0.20;;;;;;;6.65;100.00;95945.31;5053436;28;20065;-75
2023/01/11 07:51:30;;;;;;;0.10;0.10;;;;;;;6.64;100.00;95954.34;5051977;28;20048;-77
2023/01/11 07:54:17;;;;;;;0.20;0.20;;;;;;;6.67;100.00;95948.53;5054096;28;20233;-78
2023/01/11 07:57:03;;;;;;;0.10;0.10;;;;;;;6.70;100.00;95951.56;5053956;28;20052;-77
2023/01/11 07:59:49;;;;;;;0.13;0.13;;;;;;;6.75;100.00;95956.16;5040901;28;20032;-74
2023/01/11 08:02:34;;;;;;;0.20;0.20;;;;;;;6.82;100.00;95956.81;5058559;28;20547;-74
2023/01/11 08:05:20;;;;;;;0.20;0.20;;;;;;;6.81;100.00;95954.41;5059245;28;20786;-74
2023/01/11 08:08:06;;;;;;;0.10;0.10;;;;;;;6.84;100.00;95964.56;5040785;28;20051;-76
2023/01/11 08:17:01;;;;;;;0.20;0.20;;;;;;;6.97;100.00;95962.44;5057644;28;20479;-75
2023/01/11 08:19:47;;;;;;;0.20;0.20;;;;;;;6.96;100.00;95976.78;5059330;28;20127;-75
2023/01/11 08:22:33;;;;;;;0.20;0.20;;;;;;;6.94;100.00;95973.56;5057677;28;20636;-76
2023/01/11 08:25:19;;;;;;;0.20;0.20;;;;;;;6.99;100.00;95965.66;5058626;28;20037;-75
2023/01/11 08:28:06;;;;;;;0.20;0.20;;;;;;;7.02;100.00;95964.38;5057775;28;20649;-75
2023/01/11 08:30:53;;;;;;;0.10;0.10;;;;;;;7.15;100.00;95963.28;5057866;28;20052;-76
2023/01/11 08:33:39;;;;;;;0.17;0.17;;;;;;;7.20;100.00;95974.81;5056351;28;20524;-76
2023/01/11 08:36:26;;;;;;;0.20;0.20;;;;;;;7.22;100.00;95969.25;5056698;28;20267;-76
2023/01/11 08:39:12;;;;;;;0.10;0.10;;;;;;;7.15;100.00;95971.25;5056225;28;20610;-76
2023/01/11 08:41:58;;;;;;;0.10;0.10;;;;;;;7.12;100.00;95972.56;5057676;28;20044;-75
2023/01/11 08:44:44;;;;;;;0.20;0.20;;;;;;;7.20;100.00;95982.81;5058040;28;20131;-74
2023/01/11 08:47:30;;;;;;;0.20;0.20;;;;;;;7.22;100.00;95977.25;5056096;28;20040;-75
2023/01/11 08:50:17;;;;;;;0.20;0.20;;;;;;;7.32;100.00;95976.66;5060434;28;20467;-76
2023/01/11 08:53:03;;;;;;;0.20;0.20;;;;;;;7.32;100.00;95988.09;5055581;28;20855;-77
2023/01/11 08:55:50;;;;;;;0.20;0.20;;;;;;;7.33;100.00;95981.72;5056979;28;20241;-77
2023/01/11 08:58:36;;;;;;;0.20;0.20;;;;;;;7.43;100.00;95978.41;5057073;28;20187;-76
2023/01/11 09:01:22;;;;;;;0.20;0.20;;;;;;;7.40;100.00;96001.00;5047393;28;20176;-75
2023/01/11 09:04:08;;;;;;;0.20;0.20;;;;;;;7.36;100.00;96001.72;5042986;28;20324;-76
2023/01/11 09:06:54;;;;;;;0.20;0.20;;;;;;;7.39;100.00;95999.41;5057290;28;20271;-77
2023/01/11 09:09:40;;;;;;;0.20;0.20;;;;;;;7.41;100.00;96013.28;5072032;27;20044;-76
2023/01/11 09:12:26;;;;;;;0.10;0.10;;;;;;;7.35;100.00;96018.75;5054776;28;20815;-76
2023/01/11 09:15:12;;;;;;;0.13;0.13;;;;;;;7.31;100.00;96018.38;5054615;28;20340;-76
2023/01/11 09:17:58;;;;;;;0.10;0.10;;;;;;;7.37;100.00;96022.78;5055310;28;20040;-76
2023/01/11 09:20:44;;;;;;;0.20;0.20;;;;;;;7.32;100.00;96046.66;5055774;28;20062;-76
2023/01/11 09:23:29;;;;;;;0.17;0.17;;;;;;;7.26;100.00;96045.75;5054120;28;20044;-76
2023/01/11 09:26:15;;;;;;;0.10;0.10;;;;;;;7.23;100.00;96032.88;5041064;28;20573;-77
2023/01/11 09:29:01;;;;;;;0.20;0.20;;;;;;;7.23;100.00;96037.41;5056695;28;20049;-76
2023/01/11 09:31:47;;;;;;;0.20;0.20;;;;;;;7.31;100.00;96022.91;5042302;28;20040;-78
2023/01/11 09:34:33;;;;;;;0.20;0.20;;;;;;;7.34;100.00;96027.78;5055919;28;20450;-77
2023/01/11 09:37:21;;;;;;;0.20;0.20;;;;;;;7.34;100.00;96028.59;5052840;28;20033;-77
2023/01/11 09:40:16;;;;;;;0.10;0.10;;;;;;;7.47;100.00;96043.44;5051902;28;20434;-76
2023/01/11 09:43:06;;;;;;;0.20;0.20;;;;;;;7.48;100.00;96040.56;5055810;28;20480;-76
2023/01/11 09:45:57;;;;;;;0.20;0.20;;;;;;;7.54;100.00;96038.78;5055918;28;20452;-77
2023/01/11 09:48:51;;;;;;;0.20;0.20;;;;;;;7.52;100.00;96038.22;5054400;28;20368;-77
2023/01/11 09:51:38;;;;;;;0.20;0.20;;;;;;;7.58;100.00;96049.78;5053077;28;20040;-77
2023/01/11 09:54:26;;;;;;;0.20;0.20;;;;;;;7.58;100.00;96050.56;5038874;28;20045;-78
2023/01/11 09:57:50;;;;;;;0.17;0.17;;;;;;;7.62;100.00;96064.22;5052220;28;20123;-77
2023/01/11 10:00:53;;;;;;;0.10;0.10;;;;;;;7.51;100.00;96045.41;5021393;28;20045;-78
2023/01/11 10:03:53;;;;;;;0.10;0.10;;;;;;;7.53;100.00;96050.47;5022370;28;20374;-77
2023/01/11 10:07:18;;;;;;;0.20;0.20;;;;;;;7.53;100.00;96032.66;5036867;28;20549;-77
2023/01/11 10:10:22;;;;;;;0.20;0.20;;;;;;;7.59;100.00;96032.75;5053647;28;20040;-76
2023/01/11 10:13:18;;;;;;;0.20;0.20;;;;;;;7.62;100.00;96038.38;5054415;28;20525;-76
2023/01/11 10:16:31;;;;;;;0.10;0.10;;;;;;;7.65;100.00;96035.25;5054352;28;20259;-76
2023/01/11 10:19:24;;;;;;;0.20;0.20;;;;;;;7.79;100.00;96033.09;5052345;28;20584;-76
2023/01/11 10:22:14;;;;;;;0.20;0.20;;;;;;;7.95;100.00;96034.16;5040531;28;20614;-76
2023/01/11 10:25:32;;;;;;;0.10;0.10;;;;;;;7.87;100.00;96029.25;5045505;28;20466;-76
2023/01/11 10:28:30;;;;;;;0.10;0.10;;;;;;;7.92;100.00;96030.09;5056602;28;20040;-76
2023/01/11 10:31:42;;;;;;;0.10;0.10;;;;;;;7.90;100.00;96034.88;5052186;28;20385;-77
2023/01/11 10:34:58;;;;;;;0.10;0.10;;;;;;;7.85;100.00;96029.44;5052808;28;20527;-76
2023/01/11 10:38:04;;;;;;;0.20;0.20;;;;;;;7.80;100.00;96021.41;5049758;28;20041;-76
2023/01/11 10:41:02;;;;;;;0.20;0.20;;;;;;;7.91;100.00;96009.03;5065275;28;20758;-77
2023/01/11 10:44:01;;;;;;;0.20;0.20;;;;;;;7.97;100.00;96032.88;5055552;28;20040;-75
2023/01/11 10:46:51;;;;;;;0.20;0.20;;;;;;;7.86;100.00;96028.44;5038033;28;20400;-75
2023/01/11 10:49:58;;;;;;;0.20;0.20;;;;;;;7.74;100.00;96055.13;5045995;28;20032;-77
2023/01/11 10:53:08;;;;;;;0.10;0.10;;;;;;;7.85;100.00;96058.75;5053928;28;20059;-75
2023/01/11 10:56:10;;;;;;;0.20;0.20;;;;;;;7.99;100.00;96048.59;5031289;28;20691;-77
2023/01/11 10:58:59;;;;;;;0.10;0.10;;;;;;;7.76;100.00;96052.22;5056497;28;20188;-76
2023/01/11 11:02:12;;;;;;;0.20;0.20;;;;;;;7.92;100.00;96048.75;5054299;28;20051;-76
2023/01/11 11:04:58;;;;;;;0.17;0.17;;;;;;;8.01;100.00;96043.84;5055855;28;20040;-75
2023/01/11 11:07:57;;;;;;;0.20;0.20;;;;;;;8.03;100.00;96044.41;5047313;28;20071;-76
2023/01/11 11:10:58;;;;;;;0.20;0.20;;;;;;;8.07;100.00;96041.00;5052855;28;20036;-76
2023/01/11 11:13:50;;;;;;;0.20;0.20;;;;;;;8.07;100.00;96041.00;5053634;28;20047;-76
2023/01/11 11:16:45;;;;;;;0.20;0.20;;;;;;;7.89;100.00;96041.25;5054756;28;20089;-75
2023/01/11 11:19:32;;;;;;;0.20;0.20;;;;;;;7.80;100.00;96048.03;5055173;28;20032;-75
2023/01/11 11:22:20;;;;;;;0.13;0.13;;;;;;;7.77;100.00;96049.31;5054551;28;20155;-76
2023/01/11 11:25:19;;;;;;;0.13;0.13;;;;;;;7.67;100.00;96046.47;5053639;28;20070;-76
2023/01/11 11:28:07;;;;;;;0.20;0.20;;;;;;;7.67;100.00;96035.00;5040747;28;20041;-75
2023/01/11 11:30:56;;;;;;;0.20;0.20;;;;;;;7.44;100.00;96036.75;5054936;28;20312;-77
2023/01/11 11:33:45;;;;;;;0.10;0.10;;;;;;;7.25;100.00;96053.97;5056818;28;20040;-76
2023/01/11 11:36:43;;;;;;;0.10;0.10;;;;;;;7.15;100.00;96040.44;5052521;28;20048;-77
2023/01/11 11:39:32;;;;;;;0.15;0.15;;;;;;;7.12;100.00;96041.72;5035359;28;20520;-78
2023/01/11 11:42:21;;;;;;;0.20;0.20;;;;;;;7.14;100.00;96042.28;4354609;28;10000613;-76
2023/01/11 11:45:10;;;;;;;0.10;0.10;;;;;;;7.12;100.00;96031.09;5051138;28;20059;-77
2023/01/11 11:48:01;;;;;;;0.10;0.10;;;;;;;7.07;100.00;96046.13;5056871;28;20048;-77
2023/01/11 11:50:49;;;;;;;0.20;0.20;;;;;;;7.25;100.00;96056.63;5052113;28;20501;-75
2023/01/11 11:53:50;;;;;;;0.10;0.10;;;;;;;7.33;100.00;96066.09;5052194;28;20032;-77
2023/01/11 11:56:40;;;;;;;0.20;0.20;;;;;;;7.42;100.00;96057.47;5038609;28;20036;-77
2023/01/11 11:59:29;;;;;;;0.10;0.10;;;;;;;7.45;100.00;96066.84;5052553;28;20120;-78
2023/01/11 12:02:30;;;;;;;0.17;0.17;;;;;;;7.63;100.00;96065.84;5053063;28;20150;-75
2023/01/11 12:05:16;;;;;;;0.10;0.10;;;;;;;7.73;100.00;96082.81;5052258;28;20491;-76
2023/01/11 12:08:03;;;;;;;0.20;0.20;;;;;;;7.69;100.00;96094.16;5052529;28;20336;-75
2023/01/11 12:10:56;;;;;;;0.10;0.10;;;;;;;7.66;100.00;96095.47;5035590;28;20527;-77
2023/01/11 12:13:43;;;;;;;0.20;0.20;;;;;;;7.70;100.00;96090.44;5038066;28;20040;-77
2023/01/11 12:16:33;;;;;;;0.10;0.10;;;;;;;7.63;100.00;96079.16;5036134;28;20426;-76
2023/01/11 12:19:38;;;;;;;0.20;0.20;;;;;;;7.58;100.00;96087.06;5053298;28;20178;-76
2023/01/11 12:22:27;;;;;;;0.20;0.20;;;;;;;7.65;100.00;96088.53;5052894;28;20036;-77
2023/01/11 12:25:13;;;;;;;0.10;0.10;;;;;;;7.70;100.00;96095.78;5051100;28;20036;-77
2023/01/11 12:28:38;;;;;;;0.20;0.20;;;;;;;7.78;100.00;96100.72;5050905;28;20037;-74
2023/01/11 12:31:32;;;;;;;0.20;0.20;;;;;;;7.81;100.00;96098.41;5052063;28;20621;-75
2023/01/11 12:34:36;;;;;;;0.35;0.30;;;;;;;7.75;100.00;96106.53;5055338;28;20036;-74
2023/01/11 12:37:49;;;;;;;0.20;0.20;;;;;;;7.71;100.00;96100.88;5054078;28;20036;-75
2023/01/11 12:41:00;;;;;;;0.20;0.20;;;;;;;7.88;100.00;96100.13;5050695;28;20032;-75
2023/01/11 12:44:15;;;;;;;0.20;0.20;;;;;;;7.89;100.00;96094.53;5038594;28;20636;-74
2023/01/11 12:47:22;;;;;;;0.20;0.20;;;;;;;7.83;100.00;96087.50;5052973;28;20037;-75
2023/01/11 12:50:24;;;;;;;0.10;0.10;;;;;;;7.84;100.00;96097.09;5053107;28;20038;-77
2023/01/11 12:53:30;;;;;;;0.10;0.10;;;;;;;7.63;100.00;96105.78;5053788;28;20067;-76
2023/01/11 12:56:51;;;;;;;0.28;0.28;;;;;;;7.53;100.00;96119.69;5051728;28;20036;-77
2023/01/11 13:00:13;;;;;;;0.20;0.20;;;;;;;7.50;100.00;96122.84;5032269;28;20062;-76
2023/01/11 13:03:01;;;;;;;0.20;0.20;;;;;;;7.51;100.00;96116.47;5015538;28;20400;-75
2023/01/11 13:06:13;;;;;;;0.20;0.20;;;;;;;7.48;100.00;96115.09;5052931;28;20317;-76
2023/01/11 13:09:07;;;;;;;0.20;0.20;;;;;;;7.46;100.00;96121.69;5035295;28;20048;-76
2023/01/11 13:12:17;;;;;;;0.10;0.10;;;;;;;7.50;100.00;96123.66;5054427;28;20054;-78
2023/01/11 13:15:25;;;;;;;0.20;0.20;;;;;;;7.44;100.00;96129.13;5056709;28;20041;-77
2023/01/11 13:18:28;;;;;;;0.20;0.20;;;;;;;7.38;100.00;96135.38;5055384;28;20032;-76
2023/01/11 13:21:31;;;;;;;0.10;0.10;;;;;;;7.34;100.00;96140.38;5052542;28;20152;-76
2023/01/11 13:24:27;;;;;;;0.20;0.20;;;;;;;7.31;100.00;96135.50;5058079;28;20467;-77
2023/01/11 13:27:21;;;;;;;0.20;0.20;;;;;;;7.28;100.00;96127.19;5055288;28;20045;-76
2023/01/11 13:30:12;;;;;;;0.20;0.20;;;;;;;7.29;100.00;96129.63;5054972;28;20082;-76
2023/01/11 13:33:05;;;;;;;0.17;0.17;;;;;;;7.23;100.00;96128.69;5055302;28;20036;-77
2023/01/11 13:36:01;;;;;;;0.20;0.20;;;;;;;7.26;100.00;96136.22;5056694;28;20556;-77
2023/01/11 13:38:56;;;;;;;0.20;0.20;;;;;;;7.31;100.00;96140.81;5057433;28;20242;-75
2023/01/11 13:41:47;;;;;;;0.10;0.10;;;;;;;7.32;100.00;96136.34;5056188;28;20360;-75
2023/01/11 13:44:41;;;;;;;0.30;0.30;;;;;;;7.23;100.00;96151.84;5046707;28;20043;-76
2023/01/11 13:47:38;;;;;;;0.20;0.20;;;;;;;7.20;100.00;96152.31;5056325;28;20062;-77
2023/01/11 13:50:29;;;;;;;0.20;0.20;;;;;;;7.21;100.00;96151.28;5044493;28;20078;-76